Time;durP1;ratioP1;P1;durP2;ratioP2;P2;SDS_P1;SDS_P2;PMS_P1;PMS_P2;Temp;Humidity;BMP_temperature;BMP_pressure;BME280_temperature;BME280_humidity;BME280_pressure;Samples;Min_cycle;Max_cycle;Signal;HPM_P1;HPM_P2
2023/08/04 00:01:24;;;;;;;0.77;0.70;;;22.10;53.90;;;;;;4972839;28;20229;-81
2023/08/04 00:03:51;;;;;;;2.22;0.90;;;22.10;53.80;;;;;;4958361;29;20253;-81
2023/08/04 00:06:18;;;;;;;0.68;0.68;;;22.10;53.90;;;;;;4973386;28;20257;-81
2023/08/04 00:08:47;;;;;;;0.70;0.70;;;22.10;53.90;;;;;;4977636;28;20203;-81
2023/08/04 00:11:14;;;;;;;1.10;0.80;;;22.10;53.90;;;;;;4965161;28;20227;-81
2023/08/04 00:13:42;;;;;;;1.38;0.90;;;22.10;53.90;;;;;;4982410;28;20229;-81
2023/08/04 00:16:09;;;;;;;1.65;0.82;;;22.10;53.90;;;;;;4963911;29;20547;-81
2023/08/04 00:18:36;;;;;;;1.38;0.80;;;22.10;53.90;;;;;;4958377;29;20703;-83
2023/08/04 00:21:07;;;;;;;3.20;0.90;;;22.10;53.90;;;;;;5020980;22;20233;-79
2023/08/04 00:23:35;;;;;;;0.95;0.80;;;22.00;53.80;;;;;;5000873;28;20211;-79
2023/08/04 00:26:03;;;;;;;1.13;0.90;;;22.10;53.80;;;;;;5018244;28;20196;-79
2023/08/04 00:28:30;;;;;;;2.30;1.00;;;22.00;53.90;;;;;;5017811;28;20246;-79
2023/08/04 00:30:57;;;;;;;1.10;0.70;;;22.00;53.80;;;;;;5017217;28;20212;-79
2023/08/04 00:33:24;;;;;;;1.00;0.90;;;22.00;53.90;;;;;;5017133;28;20570;-79
2023/08/04 00:35:51;;;;;;;1.17;0.80;;;22.00;53.80;;;;;;5017101;28;20677;-79
2023/08/04 00:38:18;;;;;;;0.77;0.70;;;22.00;53.70;;;;;;5017221;28;20212;-79
2023/08/04 00:40:46;;;;;;;0.80;0.80;;;22.00;53.70;;;;;;5013597;28;20227;-78
2023/08/04 00:43:14;;;;;;;1.00;0.90;;;22.00;53.70;;;;;;5016952;28;20369;-78
2023/08/04 00:45:41;;;;;;;1.05;0.75;;;22.00;53.70;;;;;;5017177;28;20262;-78
2023/08/04 00:48:09;;;;;;;2.05;1.00;;;22.00;53.70;;;;;;5017285;28;20240;-78
2023/08/04 00:50:36;;;;;;;1.25;0.60;;;22.00;54.10;;;;;;5017571;28;20243;-78
2023/08/04 00:53:03;;;;;;;1.13;0.73;;;22.00;53.70;;;;;;5016868;28;20203;-78
2023/08/04 00:55:30;;;;;;;1.25;1.15;;;22.00;53.70;;;;;;5017260;28;20230;-78
2023/08/04 00:57:57;;;;;;;1.52;0.77;;;22.00;53.80;;;;;;5017837;28;20239;-78
2023/08/04 01:00:26;;;;;;;1.50;0.80;;;21.90;53.70;;;;;;5017903;28;20330;-79
2023/08/04 01:02:52;;;;;;;1.35;0.50;;;21.90;53.80;;;;;;5017177;28;20367;-79
2023/08/04 01:05:20;;;;;;;1.00;0.90;;;21.90;53.80;;;;;;5017021;28;20286;-79
2023/08/04 01:07:54;;;;;;;2.13;0.90;;;21.90;53.70;;;;;;5017669;28;20200;-79
2023/08/04 01:10:24;;;;;;;0.82;0.70;;;21.90;53.80;;;;;;5017623;28;20211;-79
2023/08/04 01:12:57;;;;;;;1.33;0.90;;;21.90;53.90;;;;;;5017028;28;20192;-79
2023/08/04 01:15:25;;;;;;;1.90;0.80;;;21.90;53.80;;;;;;5016800;28;20200;-79
2023/08/04 01:17:52;;;;;;;2.60;0.77;;;21.90;53.80;;;;;;5016896;28;20659;-79
2023/08/04 01:20:20;;;;;;;0.98;0.80;;;21.90;53.80;;;;;;5016681;28;20278;-79
2023/08/04 01:22:49;;;;;;;1.27;0.57;;;21.90;53.80;;;;;;5000389;28;20219;-79
2023/08/04 01:25:16;;;;;;;1.23;0.70;;;21.80;53.60;;;;;;5016423;28;20281;-79
2023/08/04 01:27:44;;;;;;;1.10;1.00;;;21.80;53.70;;;;;;5016684;28;20207;-79
2023/08/04 01:30:14;;;;;;;3.83;0.80;;;21.90;53.70;;;;;;5025077;28;20216;-79
2023/08/04 01:32:42;;;;;;;1.13;0.90;;;21.80;53.70;;;;;;5026147;28;20192;-79
2023/08/04 01:35:09;;;;;;;0.95;0.70;;;21.80;53.70;;;;;;5016327;28;20200;-79
2023/08/04 01:37:35;;;;;;;1.45;0.85;;;21.80;53.60;;;;;;5016234;28;20203;-79
2023/08/04 01:40:05;;;;;;;1.95;0.70;;;21.80;53.60;;;;;;5013223;28;20270;-79
2023/08/04 01:42:32;;;;;;;1.27;0.95;;;21.80;53.60;;;;;;5033571;28;20188;-79
2023/08/04 01:44:59;;;;;;;1.02;0.65;;;21.70;53.50;;;;;;5000296;28;20219;-79
2023/08/04 01:47:26;;;;;;;1.02;0.70;;;21.80;53.60;;;;;;5016149;28;20196;-79
2023/08/04 01:49:53;;;;;;;1.60;0.80;;;21.80;53.60;;;;;;5016472;28;20188;-79
2023/08/04 01:52:20;;;;;;;0.70;0.68;;;21.70;53.50;;;;;;5016076;28;20196;-79
2023/08/04 01:54:47;;;;;;;1.05;0.98;;;21.70;53.60;;;;;;5007537;28;20200;-79
2023/08/04 01:57:15;;;;;;;1.25;0.70;;;21.80;53.70;;;;;;5015262;28;20196;-79
2023/08/04 01:59:43;;;;;;;1.25;0.73;;;21.80;53.70;;;;;;5016364;28;20216;-79
2023/08/04 02:02:10;;;;;;;1.00;0.90;;;21.70;53.70;;;;;;5017094;28;20642;-79
2023/08/04 02:04:37;;;;;;;2.35;0.80;;;21.70;53.70;;;;;;5019956;28;20200;-79
2023/08/04 02:07:05;;;;;;;1.63;0.90;;;21.70;53.70;;;;;;5019878;28;20200;-79
2023/08/04 02:09:33;;;;;;;1.33;0.93;;;21.70;53.80;;;;;;5003559;28;20655;-79
2023/08/04 02:12:00;;;;;;;1.05;0.70;;;21.60;53.70;;;;;;5019783;28;20222;-79
2023/08/04 02:14:29;;;;;;;0.70;0.70;;;21.70;53.80;;;;;;5019677;28;20289;-78
2023/08/04 02:16:56;;;;;;;0.60;0.60;;;21.70;53.90;;;;;;5019369;28;20563;-78
2023/08/04 02:19:23;;;;;;;0.70;0.60;;;21.60;53.70;;;;;;5019651;28;20236;-78
2023/08/04 02:21:51;;;;;;;0.70;0.70;;;21.70;53.90;;;;;;5019945;28;20682;-78
2023/08/04 02:24:18;;;;;;;0.82;0.82;;;21.60;53.80;;;;;;5003587;28;20200;-78
2023/08/04 02:26:45;;;;;;;1.10;1.00;;;21.60;53.80;;;;;;5019266;28;20246;-78
2023/08/04 02:29:12;;;;;;;1.15;0.63;;;21.60;53.70;;;;;;5020196;28;20254;-78
2023/08/04 02:31:42;;;;;;;1.85;0.93;;;21.60;53.80;;;;;;5019548;28;20250;-78
2023/08/04 02:34:09;;;;;;;2.80;0.80;;;21.50;53.70;;;;;;5018986;28;20192;-78
2023/08/04 02:36:36;;;;;;;0.82;0.82;;;21.60;53.90;;;;;;5002958;28;20262;-78
2023/08/04 02:39:03;;;;;;;0.98;0.80;;;21.60;53.90;;;;;;5019062;28;20211;-78
2023/08/04 02:41:30;;;;;;;0.88;0.57;;;21.60;53.90;;;;;;5019151;28;20224;-78
2023/08/04 02:43:57;;;;;;;1.50;0.75;;;21.50;53.80;;;;;;5019186;28;20196;-78
2023/08/04 02:46:25;;;;;;;0.90;0.80;;;21.60;54.00;;;;;;5018802;28;20196;-78
2023/08/04 02:48:53;;;;;;;1.67;0.70;;;21.50;53.90;;;;;;5018860;28;20269;-79
2023/08/04 02:51:20;;;;;;;1.02;0.63;;;21.60;54.10;;;;;;5018483;28;20216;-79
2023/08/04 02:53:48;;;;;;;1.13;0.90;;;21.50;54.00;;;;;;5018522;28;20674;-78
2023/08/04 02:56:15;;;;;;;1.15;0.70;;;21.50;54.10;;;;;;5019016;28;20200;-78
2023/08/04 02:58:43;;;;;;;2.05;0.93;;;21.50;54.20;;;;;;5036711;28;20195;-78
2023/08/04 03:01:10;;;;;;;0.75;0.60;;;21.50;54.30;;;;;;5018771;28;20223;-78
2023/08/04 03:03:37;;;;;;;1.73;1.00;;;21.50;54.30;;;;;;5018459;28;20196;-78
2023/08/04 03:06:06;;;;;;;2.25;0.95;;;21.50;54.30;;;;;;5018376;28;20200;-78
2023/08/04 03:08:33;;;;;;;0.80;0.80;;;21.50;54.30;;;;;;5019121;28;20196;-78
2023/08/04 03:11:00;;;;;;;0.60;0.60;;;21.50;54.50;;;;;;5018191;28;20212;-78
2023/08/04 03:13:28;;;;;;;2.88;0.90;;;21.50;54.30;;;;;;5017444;28;20207;-78
2023/08/04 03:15:56;;;;;;;1.10;0.82;;;21.50;54.30;;;;;;5017789;28;20620;-78
2023/08/04 03:18:24;;;;;;;1.73;0.90;;;21.50;54.20;;;;;;5018278;28;20297;-78
2023/08/04 03:20:51;;;;;;;0.93;0.80;;;21.50;54.10;;;;;;5018294;28;20690;-78
2023/08/04 03:23:19;;;;;;;0.85;0.75;;;21.60;54.50;;;;;;5018162;28;20226;-78
2023/08/04 03:25:46;;;;;;;0.82;0.73;;;21.50;54.30;;;;;;5017899;28;20207;-78
2023/08/04 03:28:14;;;;;;;1.83;1.05;;;21.60;54.50;;;;;;5018057;28;20203;-78
2023/08/04 03:30:41;;;;;;;1.98;0.95;;;21.60;54.40;;;;;;5017870;28;20219;-78
2023/08/04 03:33:08;;;;;;;1.83;0.95;;;21.60;54.40;;;;;;5017805;28;20196;-78
2023/08/04 03:35:35;;;;;;;1.02;0.90;;;21.60;54.40;;;;;;5001514;28;20651;-78
2023/08/04 03:38:03;;;;;;;0.82;0.82;;;21.60;54.30;;;;;;5012728;28;20211;-78
2023/08/04 03:40:31;;;;;;;1.45;0.98;;;21.60;54.30;;;;;;5017461;28;20259;-78
2023/08/04 03:42:58;;;;;;;2.42;0.80;;;21.70;54.50;;;;;;5017654;28;20200;-78
2023/08/04 03:45:26;;;;;;;1.23;0.95;;;21.70;54.40;;;;;;5017464;28;20207;-78
2023/08/04 03:47:53;;;;;;;1.60;0.77;;;21.70;54.50;;;;;;5017663;28;20227;-78
2023/08/04 03:50:20;;;;;;;0.80;0.80;;;21.70;54.50;;;;;;5017519;28;20207;-79
2023/08/04 03:52:47;;;;;;;1.23;0.90;;;21.70;54.40;;;;;;5017487;28;20261;-79
2023/08/04 03:55:14;;;;;;;0.88;0.82;;;21.70;54.40;;;;;;5017264;28;20601;-78
2023/08/04 03:57:42;;;;;;;1.50;0.80;;;21.70;54.40;;;;;;5017294;28;20207;-79
2023/08/04 04:00:10;;;;;;;0.98;0.80;;;21.70;54.40;;;;;;5017483;28;20304;-79
2023/08/04 04:02:40;;;;;;;1.00;0.93;;;21.70;54.40;;;;;;5035121;28;20234;-79
2023/08/04 04:05:07;;;;;;;1.40;0.90;;;21.70;54.40;;;;;;5017397;28;20203;-79
2023/08/04 04:07:35;;;;;;;0.93;0.80;;;21.70;54.30;;;;;;5017385;28;20193;-79
2023/08/04 04:10:02;;;;;;;1.08;0.98;;;21.80;54.20;;;;;;5020757;28;20242;-80
2023/08/04 04:12:29;;;;;;;1.17;0.80;;;21.80;54.30;;;;;;5005872;28;20200;-79
2023/08/04 04:14:57;;;;;;;1.40;1.02;;;21.80;54.10;;;;;;5017065;28;20196;-79
2023/08/04 04:17:24;;;;;;;2.10;0.80;;;21.80;54.10;;;;;;5016933;28;20207;-79
2023/08/04 04:19:51;;;;;;;1.38;0.80;;;21.80;54.10;;;;;;5016783;28;20690;-79
2023/08/04 04:22:18;;;;;;;1.02;0.85;;;21.80;54.10;;;;;;5016981;28;20654;-78
2023/08/04 04:24:46;;;;;;;1.45;0.88;;;21.80;54.20;;;;;;5016559;28;20208;-79
2023/08/04 04:27:13;;;;;;;0.80;0.80;;;21.80;54.10;;;;;;5026729;28;20192;-79
2023/08/04 04:29:40;;;;;;;1.52;1.00;;;21.80;54.20;;;;;;5017626;28;20689;-79
2023/08/04 04:32:08;;;;;;;1.45;0.90;;;21.80;54.20;;;;;;5017848;28;20212;-80
2023/08/04 04:34:35;;;;;;;1.83;0.90;;;21.80;54.10;;;;;;5015739;28;20196;-80
2023/08/04 04:37:02;;;;;;;1.25;0.88;;;21.80;54.10;;;;;;5018007;28;20200;-81
2023/08/04 04:39:29;;;;;;;2.78;0.75;;;21.80;54.10;;;;;;5034458;28;20267;-81
2023/08/04 04:41:56;;;;;;;1.45;0.80;;;21.80;54.20;;;;;;5012731;28;20330;-82
2023/08/04 04:44:24;;;;;;;1.00;0.90;;;21.90;54.10;;;;;;5001174;28;20286;-82
2023/08/04 04:46:51;;;;;;;1.00;0.90;;;21.90;54.10;;;;;;5016668;28;20202;-82
2023/08/04 04:49:20;;;;;;;2.17;1.00;;;21.80;54.10;;;;;;5014282;28;20734;-82
2023/08/04 04:51:47;;;;;;;2.13;1.40;;;21.80;54.10;;;;;;5016877;28;20341;-82
2023/08/04 04:54:14;;;;;;;1.83;1.00;;;21.80;54.30;;;;;;5016961;28;20200;-82
2023/08/04 04:56:41;;;;;;;1.48;1.13;;;21.70;54.60;;;;;;5017597;28;20203;-82
2023/08/04 04:59:11;;;;;;;3.13;1.00;;;21.70;54.90;;;;;;5016671;28;20238;-82
2023/08/04 05:01:38;;;;;;;1.70;1.30;;;21.80;54.70;;;;;;5017475;28;20231;-82
2023/08/04 05:04:06;;;;;;;0.88;0.88;;;21.80;54.60;;;;;;5016858;28;20619;-82
2023/08/04 05:06:34;;;;;;;0.90;0.90;;;21.90;54.70;;;;;;5016747;28;20575;-82
2023/08/04 05:09:01;;;;;;;3.72;1.10;;;21.90;54.60;;;;;;5016349;28;20203;-82
2023/08/04 05:11:29;;;;;;;1.83;1.20;;;21.80;54.60;;;;;;5017930;28;20219;-81
2023/08/04 05:13:56;;;;;;;1.92;1.00;;;21.90;55.00;;;;;;5016976;28;20312;-83
2023/08/04 05:16:23;;;;;;;1.13;1.00;;;21.90;54.90;;;;;;5017141;28;20196;-80
2023/08/04 05:18:50;;;;;;;2.55;1.00;;;21.80;55.00;;;;;;5000887;28;20203;-80
2023/08/04 05:21:17;;;;;;;3.25;1.00;;;21.80;55.00;;;;;;5016370;28;20235;-80
2023/08/04 05:23:46;;;;;;;2.58;1.13;;;21.80;55.10;;;;;;5015664;28;20192;-80
2023/08/04 05:26:12;;;;;;;1.60;0.95;;;21.80;55.20;;;;;;5034886;28;20234;-80
2023/08/04 05:28:40;;;;;;;3.63;1.20;;;21.80;55.60;;;;;;5016831;28;20719;-80
2023/08/04 05:31:08;;;;;;;2.10;1.20;;;21.80;55.50;;;;;;5000382;28;20219;-80
2023/08/04 05:33:35;;;;;;;3.38;1.05;;;21.90;55.20;;;;;;5016228;28;20192;-80
2023/08/04 05:36:02;;;;;;;1.13;1.00;;;22.00;54.70;;;;;;5016264;28;20202;-80
2023/08/04 05:38:29;;;;;;;2.20;1.15;;;22.10;54.40;;;;;;5003398;28;20236;-77
2023/08/04 05:41:00;;;;;;;3.70;1.20;;;22.10;54.10;;;;;;5019515;28;20231;-77
2023/08/04 05:43:28;;;;;;;2.00;1.20;;;22.10;54.10;;;;;;5018903;28;20215;-77
2023/08/04 05:45:54;;;;;;;0.98;0.95;;;22.10;54.70;;;;;;5014910;28;20196;-76
2023/08/04 05:48:22;;;;;;;2.60;1.40;;;22.10;54.00;;;;;;5019386;28;20218;-79
2023/08/04 05:50:49;;;;;;;2.15;1.10;;;22.10;53.80;;;;;;5017760;28;20212;-79
2023/08/04 05:53:16;;;;;;;1.90;1.05;;;22.10;53.80;;;;;;5007470;28;20219;-80
2023/08/04 05:55:44;;;;;;;2.30;1.10;;;22.10;53.70;;;;;;4993010;28;20268;-79
2023/08/04 05:58:12;;;;;;;3.45;1.10;;;22.20;53.70;;;;;;5023586;28;20206;-79
2023/08/04 06:00:40;;;;;;;1.60;1.02;;;22.30;53.80;;;;;;5007261;28;20251;-79
2023/08/04 06:03:07;;;;;;;1.45;1.10;;;22.30;53.50;;;;;;5025084;28;20654;-79
2023/08/04 06:05:35;;;;;;;1.02;0.90;;;22.40;53.60;;;;;;5024230;28;20231;-79
2023/08/04 06:08:03;;;;;;;1.17;1.00;;;22.40;53.50;;;;;;5006289;28;20619;-79
2023/08/04 06:10:30;;;;;;;1.73;1.20;;;22.50;53.50;;;;;;5021873;28;20248;-79
2023/08/04 06:12:57;;;;;;;1.92;1.00;;;22.60;53.30;;;;;;5022739;28;20200;-79
2023/08/04 06:15:25;;;;;;;2.78;0.85;;;22.80;53.00;;;;;;5022169;28;20200;-79
2023/08/04 06:17:52;;;;;;;2.40;1.10;;;23.00;52.60;;;;;;5005962;28;20624;-79
2023/08/04 06:20:20;;;;;;;1.58;1.00;;;23.20;52.40;;;;;;5022719;28;20223;-79
2023/08/04 06:22:47;;;;;;;1.90;1.20;;;23.40;52.20;;;;;;5015276;23;1673419;-79
2023/08/04 06:25:15;;;;;;;2.60;1.05;;;23.50;51.60;;;;;;5036976;28;20873;-78
2023/08/04 06:27:42;;;;;;;1.52;0.98;;;23.70;51.30;;;;;;5036910;28;20250;-78
2023/08/04 06:30:09;;;;;;;0.93;0.75;;;23.80;51.10;;;;;;5036941;28;20334;-78
2023/08/04 06:32:38;;;;;;;1.10;0.98;;;23.90;51.00;;;;;;5036603;28;20608;-79
2023/08/04 06:35:07;;;;;;;2.63;1.25;;;23.90;50.90;;;;;;5037654;28;20192;-79
2023/08/04 06:37:35;;;;;;;1.30;1.10;;;23.90;50.90;;;;;;5027947;28;20208;-79
2023/08/04 06:40:03;;;;;;;1.73;1.08;;;23.80;50.90;;;;;;5045228;28;20246;-79
2023/08/04 06:42:30;;;;;;;1.42;1.10;;;23.80;51.00;;;;;;5045127;28;20326;-79
2023/08/04 06:44:58;;;;;;;1.05;0.95;;;23.80;51.10;;;;;;5041332;28;20299;-79
2023/08/04 06:47:25;;;;;;;1.13;1.02;;;23.70;51.10;;;;;;5039983;28;20559;-79
2023/08/04 06:49:53;;;;;;;2.05;1.30;;;23.70;51.10;;;;;;5039386;28;20196;-79
2023/08/04 06:52:20;;;;;;;2.47;1.20;;;23.70;51.20;;;;;;5040103;28;20230;-79
2023/08/04 06:54:48;;;;;;;1.00;0.90;;;23.70;51.20;;;;;;5038713;28;20207;-79
2023/08/04 06:57:16;;;;;;;1.00;1.00;;;23.70;51.20;;;;;;5036559;28;20291;-79
2023/08/04 06:59:42;;;;;;;1.77;0.98;;;23.70;51.20;;;;;;5035943;28;20286;-79
2023/08/04 07:02:10;;;;;;;2.42;1.15;;;23.70;51.80;;;;;;5035974;28;20246;-80
2023/08/04 07:04:37;;;;;;;2.33;1.10;;;23.80;51.20;;;;;;5035888;28;20681;-79
2023/08/04 07:07:06;;;;;;;1.20;1.10;;;23.80;51.10;;;;;;5036243;28;20258;-79
2023/08/04 07:09:33;;;;;;;2.13;1.10;;;23.90;51.00;;;;;;5036173;28;20242;-79
2023/08/04 07:12:00;;;;;;;1.83;0.90;;;24.00;50.80;;;;;;5036421;28;20265;-79
2023/08/04 07:14:27;;;;;;;1.55;1.20;;;24.10;50.70;;;;;;5035917;28;20200;-79
2023/08/04 07:16:55;;;;;;;1.95;1.10;;;24.20;50.50;;;;;;5035842;28;20227;-79
2023/08/04 07:19:21;;;;;;;0.95;0.80;;;24.30;50.30;;;;;;5037099;28;20530;-80
2023/08/04 07:21:48;;;;;;;2.15;1.10;;;24.40;50.20;;;;;;5035329;28;20223;-79
2023/08/04 07:24:17;;;;;;;1.58;1.00;;;24.40;50.10;;;;;;5038094;28;20219;-79
2023/08/04 07:26:44;;;;;;;2.28;1.00;;;24.50;49.80;;;;;;5035783;28;20231;-79
2023/08/04 07:29:11;;;;;;;0.80;0.80;;;24.60;49.60;;;;;;5019386;28;20208;-79
2023/08/04 07:31:38;;;;;;;0.70;0.70;;;24.70;49.60;;;;;;5035641;28;20262;-79
2023/08/04 07:34:05;;;;;;;1.10;1.00;;;24.70;49.50;;;;;;5035871;28;20566;-80
2023/08/04 07:36:32;;;;;;;1.13;0.90;;;24.80;49.50;;;;;;5036872;28;20617;-79
2023/08/04 07:38:59;;;;;;;0.90;0.90;;;24.90;49.20;;;;;;5035823;28;20223;-79
2023/08/04 07:41:29;;;;;;;1.25;1.10;;;25.00;48.90;;;;;;5037170;28;20306;-79
2023/08/04 07:43:56;;;;;;;1.40;1.20;;;25.10;48.60;;;;;;5037091;28;20196;-79
2023/08/04 07:46:24;;;;;;;1.67;1.00;;;25.30;48.40;;;;;;5037683;28;20200;-80
2023/08/04 07:48:51;;;;;;;1.02;0.93;;;25.50;48.00;;;;;;5037196;28;20200;-80
2023/08/04 07:51:18;;;;;;;1.02;0.93;;;25.60;47.50;;;;;;5037785;28;20224;-79
2023/08/04 07:53:45;;;;;;;2.42;1.27;;;25.80;47.30;;;;;;5037467;28;20203;-79
2023/08/04 07:56:12;;;;;;;1.40;1.00;;;26.00;46.90;;;;;;5036263;28;20291;-78
2023/08/04 07:58:41;;;;;;;1.08;0.85;;;26.10;46.60;;;;;;5019763;28;20207;-78
2023/08/04 08:01:08;;;;;;;1.10;1.00;;;26.20;46.50;;;;;;5035565;28;20282;-80
2023/08/04 08:03:35;;;;;;;1.40;1.08;;;26.20;46.50;;;;;;5037217;28;20259;-79
2023/08/04 08:06:03;;;;;;;1.02;1.00;;;26.10;46.70;;;;;;5020861;28;20296;-79
2023/08/04 08:08:30;;;;;;;1.20;1.02;;;26.00;46.80;;;;;;5036070;28;20246;-79
2023/08/04 08:10:57;;;;;;;1.25;0.90;;;25.90;47.00;;;;;;5036768;28;20216;-79
2023/08/04 08:13:25;;;;;;;1.55;1.17;;;25.80;47.20;;;;;;5036218;28;20286;-79
2023/08/04 08:15:53;;;;;;;0.95;0.88;;;25.70;47.30;;;;;;5035837;28;20196;-79
2023/08/04 08:18:21;;;;;;;1.13;1.02;;;25.70;47.40;;;;;;5035449;28;20227;-79
2023/08/04 08:20:48;;;;;;;1.95;1.10;;;25.70;47.40;;;;;;5035677;28;20215;-78
2023/08/04 08:23:14;;;;;;;1.30;0.93;;;25.80;47.20;;;;;;5034278;28;20266;-79
2023/08/04 08:25:41;;;;;;;1.58;0.80;;;25.90;47.10;;;;;;5034385;28;20226;-79
2023/08/04 08:28:09;;;;;;;1.15;1.00;;;25.90;47.00;;;;;;5034412;28;20228;-79
2023/08/04 08:30:36;;;;;;;1.85;1.10;;;25.90;47.00;;;;;;5034719;28;20211;-79
2023/08/04 08:33:04;;;;;;;0.85;0.85;;;25.90;47.10;;;;;;5018488;28;20196;-79
2023/08/04 08:35:32;;;;;;;1.40;0.90;;;25.90;47.00;;;;;;5035333;28;20222;-79
2023/08/04 08:37:59;;;;;;;1.65;1.00;;;26.00;47.00;;;;;;5018087;28;20203;-79
2023/08/04 08:40:26;;;;;;;1.10;0.93;;;26.00;47.00;;;;;;5034427;28;20227;-79
2023/08/04 08:42:55;;;;;;;0.93;0.82;;;26.00;46.80;;;;;;5034432;28;20325;-79
2023/08/04 08:45:24;;;;;;;1.10;1.00;;;26.10;46.80;;;;;;5034986;28;20249;-79
2023/08/04 08:47:51;;;;;;;1.67;1.13;;;26.20;46.70;;;;;;5018561;28;20336;-79
2023/08/04 08:50:19;;;;;;;0.98;0.90;;;26.20;46.50;;;;;;5034566;28;20211;-79
2023/08/04 08:52:46;;;;;;;1.00;1.00;;;26.20;46.40;;;;;;5034890;28;20196;-79
2023/08/04 08:55:14;;;;;;;1.10;1.00;;;26.20;46.30;;;;;;5034562;28;20541;-79
2023/08/04 08:57:41;;;;;;;1.33;0.80;;;26.20;46.40;;;;;;5034713;28;20199;-79
2023/08/04 09:00:09;;;;;;;1.23;0.77;;;26.20;46.30;;;;;;5034363;28;20200;-79
2023/08/04 09:02:37;;;;;;;0.90;0.82;;;26.20;46.40;;;;;;5018705;28;20220;-79
2023/08/04 09:05:05;;;;;;;1.33;0.90;;;26.20;46.40;;;;;;5034331;28;20662;-79
2023/08/04 09:07:33;;;;;;;0.98;0.88;;;26.10;46.40;;;;;;5034087;28;20272;-79
2023/08/04 09:10:01;;;;;;;2.00;1.20;;;26.10;46.60;;;;;;5034658;28;20241;-79
2023/08/04 09:12:28;;;;;;;1.33;0.85;;;26.00;46.70;;;;;;5034315;28;20195;-79
2023/08/04 09:14:56;;;;;;;1.38;1.20;;;26.00;46.70;;;;;;5034844;28;20608;-79
2023/08/04 09:17:30;;;;;;;1.65;0.90;;;26.00;46.80;;;;;;5018358;28;20202;-79
2023/08/04 09:19:58;;;;;;;2.15;0.80;;;26.00;46.80;;;;;;5033829;28;20285;-79
2023/08/04 09:22:25;;;;;;;1.92;1.08;;;26.10;46.60;;;;;;5017106;28;20220;-79
2023/08/04 09:24:59;;;;;;;0.80;0.80;;;26.20;46.50;;;;;;5035224;28;20275;-79
2023/08/04 09:27:30;;;;;;;1.05;0.88;;;26.20;46.40;;;;;;5034688;28;20274;-78
2023/08/04 09:29:59;;;;;;;0.93;0.90;;;26.10;46.50;;;;;;5035136;28;20646;-78
2023/08/04 09:32:25;;;;;;;0.88;0.80;;;26.10;46.60;;;;;;5052653;28;20207;-78
2023/08/04 09:35:00;;;;;;;1.10;0.93;;;26.00;46.80;;;;;;5054370;28;20263;-79
2023/08/04 09:37:29;;;;;;;1.27;1.00;;;25.90;47.00;;;;;;5037780;28;20199;-79
2023/08/04 09:39:57;;;;;;;1.48;1.20;;;25.90;47.20;;;;;;5036406;28;20196;-79
2023/08/04 09:42:25;;;;;;;0.93;0.90;;;25.90;47.20;;;;;;5033740;28;20269;-79
2023/08/04 09:44:52;;;;;;;0.80;0.80;;;25.90;47.20;;;;;;5033482;28;20208;-79
2023/08/04 09:47:22;;;;;;;1.15;1.05;;;25.90;47.30;;;;;;5018878;28;20200;-79
2023/08/04 09:49:50;;;;;;;1.58;0.88;;;25.90;47.30;;;;;;5036530;28;20199;-79
2023/08/04 09:52:23;;;;;;;1.67;1.10;;;25.90;47.10;;;;;;5037603;28;20187;-79
2023/08/04 09:54:52;;;;;;;2.00;1.20;;;26.00;46.90;;;;;;5035409;28;20192;-79
2023/08/04 09:57:22;;;;;;;1.20;1.10;;;26.10;46.60;;;;;;5034219;28;20203;-79
2023/08/04 09:59:49;;;;;;;1.35;0.80;;;26.30;46.40;;;;;;5033779;28;20273;-79
2023/08/04 10:02:18;;;;;;;1.00;0.90;;;26.40;46.10;;;;;;5033800;28;20219;-79
2023/08/04 10:04:47;;;;;;;1.58;1.00;;;26.50;46.10;;;;;;5017503;28;20201;-79
2023/08/04 10:07:15;;;;;;;1.02;0.90;;;26.50;45.80;;;;;;5034908;28;20526;-79
2023/08/04 10:09:41;;;;;;;0.80;0.80;;;26.60;45.70;;;;;;5033734;28;20207;-79
2023/08/04 10:12:09;;;;;;;0.80;0.80;;;26.60;45.60;;;;;;5033618;28;20245;-79
2023/08/04 10:14:37;;;;;;;1.55;0.95;;;26.70;45.60;;;;;;5033304;28;20191;-79
2023/08/04 10:17:05;;;;;;;0.90;0.80;;;26.70;45.50;;;;;;5032941;28;20650;-79
2023/08/04 10:19:33;;;;;;;1.00;0.90;;;26.80;45.50;;;;;;5032542;28;20294;-79
2023/08/04 10:22:04;;;;;;;1.42;1.00;;;26.80;45.40;;;;;;5032943;28;20227;-79
2023/08/04 10:24:34;;;;;;;1.30;1.00;;;26.80;45.40;;;;;;5035955;28;20200;-79
2023/08/04 10:27:04;;;;;;;1.42;1.10;;;26.80;45.50;;;;;;5036726;28;20195;-79
2023/08/04 10:29:32;;;;;;;1.00;0.90;;;26.70;45.60;;;;;;5037578;28;20303;-79
2023/08/04 10:32:07;;;;;;;0.80;0.80;;;26.60;45.80;;;;;;5036526;28;20215;-79
2023/08/04 10:34:36;;;;;;;1.00;1.00;;;26.50;46.00;;;;;;5020985;28;20198;-79
2023/08/04 10:37:05;;;;;;;0.80;0.65;;;26.40;46.10;;;;;;5036081;28;20261;-79
2023/08/04 10:39:34;;;;;;;1.38;1.00;;;26.30;46.20;;;;;;5036149;28;20195;-79
2023/08/04 10:42:01;;;;;;;0.90;0.90;;;26.30;46.40;;;;;;5035704;28;20224;-79
2023/08/04 10:44:29;;;;;;;1.08;0.98;;;26.20;46.60;;;;;;5035850;28;20259;-79
2023/08/04 10:47:04;;;;;;;0.80;0.80;;;26.10;46.80;;;;;;5036369;28;20207;-79
2023/08/04 10:49:31;;;;;;;2.85;1.10;;;26.00;47.00;;;;;;5036310;28;20286;-79
2023/08/04 10:51:59;;;;;;;1.10;1.00;;;25.90;47.10;;;;;;5035899;28;20222;-79
2023/08/04 10:54:27;;;;;;;1.10;1.00;;;25.90;47.30;;;;;;5035647;28;20265;-79
2023/08/04 10:56:54;;;;;;;1.35;1.10;;;25.80;47.40;;;;;;5035434;28;20269;-79
2023/08/04 10:59:21;;;;;;;1.60;1.00;;;25.70;48.20;;;;;;5035620;28;20242;-79
2023/08/04 11:01:48;;;;;;;1.17;1.00;;;25.60;47.80;;;;;;5035413;28;20225;-79
2023/08/04 11:04:18;;;;;;;1.10;0.98;;;25.60;48.00;;;;;;5036265;28;20514;-79
2023/08/04 11:06:45;;;;;;;1.35;1.10;;;25.50;48.10;;;;;;5035931;28;20200;-79
2023/08/04 11:09:12;;;;;;;1.52;0.90;;;25.50;48.20;;;;;;5035605;28;20207;-79
2023/08/04 11:11:40;;;;;;;1.40;1.10;;;25.50;48.30;;;;;;5036855;28;20302;-79
2023/08/04 11:14:07;;;;;;;1.17;1.00;;;25.40;48.40;;;;;;5036827;28;20542;-79
2023/08/04 11:16:36;;;;;;;1.42;0.82;;;25.40;48.50;;;;;;5035906;28;20207;-79
2023/08/04 11:19:07;;;;;;;0.95;0.82;;;25.40;48.50;;;;;;5036602;28;20231;-79
2023/08/04 11:21:36;;;;;;;1.08;0.90;;;25.40;48.60;;;;;;5035586;28;20227;-79
2023/08/04 11:24:03;;;;;;;0.80;0.80;;;25.40;48.60;;;;;;5036248;28;20207;-79
2023/08/04 11:26:31;;;;;;;1.05;0.95;;;25.40;48.70;;;;;;5035980;28;20709;-79
2023/08/04 11:28:59;;;;;;;2.47;1.10;;;25.40;48.70;;;;;;5020089;28;20204;-78
2023/08/04 11:31:27;;;;;;;0.90;0.90;;;25.40;49.30;;;;;;5036175;28;20239;-78
2023/08/04 11:33:54;;;;;;;0.80;0.80;;;25.50;48.80;;;;;;5035564;28;20196;-79
2023/08/04 11:36:22;;;;;;;1.30;0.80;;;25.50;49.40;;;;;;5034616;28;20207;-79
2023/08/04 11:38:50;;;;;;;1.15;0.98;;;25.50;48.80;;;;;;5036221;28;20206;-79
2023/08/04 11:41:21;;;;;;;1.17;0.90;;;25.50;48.70;;;;;;5036550;28;20744;-79
2023/08/04 11:43:48;;;;;;;0.80;0.75;;;25.60;48.80;;;;;;5035722;28;20226;-79
2023/08/04 11:46:15;;;;;;;0.80;0.80;;;25.50;48.80;;;;;;5036455;28;20203;-79
2023/08/04 11:48:42;;;;;;;1.20;1.10;;;25.50;48.70;;;;;;5035759;28;20203;-79
2023/08/04 11:51:09;;;;;;;1.20;0.88;;;25.60;48.80;;;;;;5035041;28;20736;-79
2023/08/04 11:53:37;;;;;;;0.80;0.80;;;25.50;48.70;;;;;;5035639;28;20195;-79
2023/08/04 11:56:07;;;;;;;1.45;0.80;;;25.60;48.80;;;;;;5037179;28;20198;-79
2023/08/04 11:58:35;;;;;;;1.83;0.77;;;25.50;48.80;;;;;;5038888;28;20207;-79
2023/08/04 12:01:03;;;;;;;2.03;1.20;;;25.50;49.50;;;;;;5035789;28;20285;-79
2023/08/04 12:03:43;;;;;;;0.90;0.90;;;25.50;48.90;;;;;;5035923;28;20290;-79
2023/08/04 12:06:15;;;;;;;1.20;0.90;;;25.50;49.00;;;;;;5035881;28;20286;-79
2023/08/04 12:08:48;;;;;;;2.30;0.82;;;25.40;49.00;;;;;;5035383;28;20258;-79
2023/08/04 12:11:17;;;;;;;1.30;0.90;;;25.40;49.20;;;;;;5036974;28;20543;-79
2023/08/04 12:13:44;;;;;;;1.58;0.70;;;25.40;49.30;;;;;;5036247;28;20282;-79
2023/08/04 12:16:12;;;;;;;1.05;0.90;;;25.40;49.40;;;;;;5035942;28;20681;-79
2023/08/04 12:18:40;;;;;;;1.25;0.80;;;25.30;49.50;;;;;;5034581;28;20196;-79
2023/08/04 12:21:11;;;;;;;0.98;0.98;;;25.30;49.70;;;;;;5050152;22;20203;-79
2023/08/04 12:23:38;;;;;;;1.30;1.05;;;25.20;49.80;;;;;;5017636;28;20215;-79
2023/08/04 12:26:05;;;;;;;1.33;0.90;;;25.20;49.90;;;;;;5018451;28;20279;-79
2023/08/04 12:28:33;;;;;;;0.77;0.77;;;25.20;49.90;;;;;;5017836;28;20203;-78
2023/08/04 12:31:00;;;;;;;2.55;1.10;;;25.20;49.90;;;;;;5017659;28;20227;-78
2023/08/04 12:33:27;;;;;;;1.00;0.90;;;25.10;49.90;;;;;;5017768;28;20199;-78
2023/08/04 12:35:54;;;;;;;2.88;0.95;;;25.10;50.00;;;;;;5017119;28;20187;-78
2023/08/04 12:38:23;;;;;;;0.90;0.80;;;25.10;50.20;;;;;;5017204;28;20199;-78
2023/08/04 12:40:50;;;;;;;2.35;1.20;;;25.10;50.30;;;;;;5017332;28;20219;-78
2023/08/04 12:43:17;;;;;;;0.80;0.80;;;25.10;50.50;;;;;;5000782;28;20306;-78
2023/08/04 12:45:45;;;;;;;0.80;0.80;;;25.10;50.60;;;;;;5017038;28;20278;-78
2023/08/04 12:48:12;;;;;;;1.90;0.82;;;25.10;50.70;;;;;;5034672;28;20192;-78
2023/08/04 12:50:39;;;;;;;0.80;0.70;;;25.10;50.80;;;;;;5017553;28;20597;-78